Time;durP1;ratioP1;P1;durP2;ratioP2;P2;SDS_P1;SDS_P2;PMS_P1;PMS_P2;Temp;Humidity;BMP_temperature;BMP_pressure;BME280_temperature;BME280_humidity;BME280_pressure;Samples;Min_cycle;Max_cycle;Signal;HPM_P1;HPM_P2
2022/11/16 00:02:08;;;;;;;4.40;3.40;;;13.50;99.90;;;;;;5016845;28;20181;-75
2022/11/16 00:04:34;;;;;;;4.03;3.63;;;13.50;99.90;;;;;;5016818;28;20627;-75
2022/11/16 00:07:03;;;;;;;3.77;3.00;;;13.50;99.90;;;;;;5016061;28;20557;-75
2022/11/16 00:09:30;;;;;;;4.00;3.57;;;13.50;99.90;;;;;;4998784;28;20565;-75
2022/11/16 00:12:00;;;;;;;5.73;3.53;;;13.50;99.90;;;;;;5015211;28;20572;-75
2022/11/16 00:14:29;;;;;;;4.17;3.73;;;13.40;99.90;;;;;;5016972;28;20704;-75
2022/11/16 00:16:55;;;;;;;4.40;3.60;;;13.50;99.90;;;;;;5010308;28;20967;-74
2022/11/16 00:19:24;;;;;;;4.93;4.40;;;13.40;99.90;;;;;;5015455;28;20573;-75
2022/11/16 00:21:50;;;;;;;4.87;3.30;;;13.40;99.90;;;;;;5014731;28;20565;-74
2022/11/16 00:24:18;;;;;;;7.20;4.80;;;13.40;99.90;;;;;;5015344;28;20639;-75
2022/11/16 00:26:44;;;;;;;3.43;3.10;;;13.40;99.90;;;;;;5015188;28;20572;-75
2022/11/16 00:29:14;;;;;;;5.83;5.23;;;13.40;99.90;;;;;;5015447;28;20605;-75
2022/11/16 00:31:40;;;;;;;4.40;3.67;;;13.40;99.90;;;;;;5013855;28;20561;-75
2022/11/16 00:34:05;;;;;;;6.33;3.90;;;13.40;99.90;;;;;;4996338;28;20611;-74
2022/11/16 00:36:31;;;;;;;4.83;4.33;;;13.30;99.90;;;;;;4997780;28;20182;-75
2022/11/16 00:38:57;;;;;;;5.83;4.50;;;13.30;99.90;;;;;;4997571;28;20278;-75
2022/11/16 00:41:23;;;;;;;5.80;4.43;;;13.30;99.90;;;;;;5014783;28;20181;-75
2022/11/16 00:43:48;;;;;;;4.33;3.40;;;13.30;99.90;;;;;;5016000;28;20557;-75
2022/11/16 00:46:14;;;;;;;5.47;4.10;;;13.30;99.90;;;;;;4998215;28;20570;-76
2022/11/16 00:48:40;;;;;;;4.83;4.33;;;13.30;99.90;;;;;;5016605;28;20178;-76
2022/11/16 00:51:06;;;;;;;3.57;3.27;;;13.30;99.90;;;;;;5000911;28;20565;-75
2022/11/16 00:53:33;;;;;;;4.73;4.07;;;13.30;99.90;;;;;;5015443;28;20601;-75
2022/11/16 00:55:59;;;;;;;5.03;4.53;;;13.30;99.90;;;;;;5014435;28;20171;-75
2022/11/16 00:58:25;;;;;;;7.70;4.20;;;13.40;99.90;;;;;;4998495;28;20173;-76
2022/11/16 01:01:05;;;;;;;6.60;4.03;;;13.30;99.90;;;;;;4997939;28;20253;-75
2022/11/16 01:03:31;;;;;;;5.37;4.87;;;13.30;99.90;;;;;;5013191;28;20612;-75
2022/11/16 01:06:04;;;;;;;6.17;4.43;;;13.30;99.90;;;;;;4996660;28;21113;-76
2022/11/16 01:08:31;;;;;;;6.83;4.17;;;13.30;99.90;;;;;;4992991;28;20654;-76
2022/11/16 01:12:07;;;;;;;5.05;3.38;;;13.30;99.90;;;;;;4993449;28;20976;-75
2022/11/16 01:13:45;;;;;;;3.57;3.20;;;13.30;99.90;;;;;;4994843;28;20202;-76
2022/11/16 01:16:15;;;;;;;5.22;3.92;;;13.30;99.90;;;;;;5013703;28;21140;-75
2022/11/16 01:18:42;;;;;;;6.87;5.00;;;13.30;99.90;;;;;;5013376;28;20205;-76
2022/11/16 01:21:08;;;;;;;7.38;4.82;;;13.30;99.90;;;;;;4996591;28;21124;-76
2022/11/16 01:23:34;;;;;;;6.17;5.10;;;13.40;99.90;;;;;;4996385;28;20198;-76
2022/11/16 01:26:03;;;;;;;5.60;4.30;;;13.30;99.90;;;;;;5013832;28;20569;-75
2022/11/16 01:28:32;;;;;;;4.40;4.00;;;13.40;99.90;;;;;;4996292;28;20175;-75
2022/11/16 01:30:58;;;;;;;5.60;3.92;;;13.30;99.90;;;;;;4993292;28;20163;-75
2022/11/16 01:33:24;;;;;;;6.50;5.20;;;13.30;99.90;;;;;;5007410;28;20179;-75
2022/11/16 01:35:50;;;;;;;4.47;3.90;;;13.30;99.90;;;;;;4994814;28;20163;-75
2022/11/16 01:38:16;;;;;;;5.32;3.38;;;13.30;99.90;;;;;;5013934;28;20167;-75
2022/11/16 01:40:42;;;;;;;4.77;3.10;;;13.30;99.90;;;;;;5013426;28;20224;-75
2022/11/16 01:43:26;;;;;;;4.57;4.17;;;13.30;99.90;;;;;;5011485;28;20667;-76
2022/11/16 01:45:58;;;;;;;5.57;4.05;;;13.30;99.90;;;;;;4996031;28;20229;-75
2022/11/16 01:48:28;;;;;;;4.10;3.63;;;13.30;99.90;;;;;;4992525;28;20170;-75
2022/11/16 01:50:56;;;;;;;5.43;4.63;;;13.40;99.90;;;;;;4996047;28;20597;-75
2022/11/16 01:53:23;;;;;;;5.23;4.20;;;13.40;99.90;;;;;;4995386;28;20600;-76
2022/11/16 01:55:52;;;;;;;4.25;3.80;;;13.40;99.90;;;;;;4995585;28;20924;-75
2022/11/16 01:58:32;;;;;;;4.60;3.77;;;13.30;99.90;;;;;;5016051;28;20207;-76
2022/11/16 02:01:20;;;;;;;4.95;4.55;;;13.30;99.90;;;;;;4997728;28;21113;-76
2022/11/16 02:03:51;;;;;;;5.60;4.00;;;13.30;99.90;;;;;;4994581;28;20194;-75
2022/11/16 02:06:26;;;;;;;4.93;4.20;;;13.30;99.90;;;;;;4995894;28;21125;-75
2022/11/16 02:12:27;;;;;;;4.80;4.22;;;13.30;99.90;;;;;;5012830;28;20309;-75
2022/11/16 02:15:06;;;;;;;6.30;3.83;;;13.30;99.90;;;;;;4995906;28;20167;-76
2022/11/16 02:17:43;;;;;;;8.30;4.20;;;13.20;99.90;;;;;;4996301;28;20876;-76
2022/11/16 02:20:25;;;;;;;5.50;4.30;;;13.30;99.90;;;;;;4996559;28;20581;-76
2022/11/16 02:22:57;;;;;;;4.32;3.92;;;13.30;99.90;;;;;;5010826;28;20272;-75
2022/11/16 02:25:56;;;;;;;4.07;3.67;;;13.30;99.90;;;;;;5012243;28;20211;-75
2022/11/16 02:28:37;;;;;;;6.20;4.30;;;13.30;99.90;;;;;;4998374;28;20173;-75
2022/11/16 02:31:06;;;;;;;4.80;4.30;;;13.30;99.90;;;;;;4964697;28;20924;-75
2022/11/16 02:33:40;;;;;;;4.10;3.70;;;13.30;99.90;;;;;;4987957;28;20604;-75
2022/11/16 02:36:11;;;;;;;5.70;5.17;;;13.30;99.90;;;;;;4992344;28;20570;-75
2022/11/16 02:38:43;;;;;;;4.72;4.22;;;13.30;99.90;;;;;;4975204;28;20578;-75
2022/11/16 02:41:20;;;;;;;5.30;4.07;;;13.30;99.90;;;;;;4974819;28;20226;-75
2022/11/16 02:43:52;;;;;;;4.10;3.70;;;13.40;99.90;;;;;;4992275;28;20615;-75
2022/11/16 02:46:27;;;;;;;5.57;4.60;;;13.40;99.90;;;;;;4975308;28;20563;-74
2022/11/16 02:48:57;;;;;;;4.22;3.80;;;13.40;99.90;;;;;;4992452;28;20213;-75
2022/11/16 02:51:27;;;;;;;6.83;5.17;;;13.40;99.90;;;;;;4975122;28;20510;-75
2022/11/16 02:54:02;;;;;;;5.35;4.60;;;13.40;99.90;;;;;;4974387;28;20705;-75
2022/11/16 02:56:29;;;;;;;5.00;4.40;;;13.40;99.90;;;;;;4990777;28;20579;-75
2022/11/16 02:58:58;;;;;;;4.33;3.83;;;13.40;99.90;;;;;;4975079;28;20233;-75
2022/11/16 03:01:30;;;;;;;4.20;3.80;;;13.40;99.90;;;;;;4974965;28;20677;-75
2022/11/16 03:04:17;;;;;;;4.87;4.00;;;13.40;99.90;;;;;;4974388;28;20823;-75
2022/11/16 03:06:45;;;;;;;5.10;4.60;;;13.40;99.90;;;;;;4975048;28;20558;-75
2022/11/16 03:09:19;;;;;;;4.10;3.55;;;13.40;99.90;;;;;;4992192;28;20503;-75
2022/11/16 03:12:01;;;;;;;5.47;4.53;;;13.40;99.90;;;;;;4974737;28;20167;-75
2022/11/16 03:14:32;;;;;;;4.60;3.80;;;13.40;99.90;;;;;;4974932;28;20214;-75
2022/11/16 03:17:00;;;;;;;6.85;4.25;;;13.30;99.90;;;;;;4990323;28;20581;-74
2022/11/16 03:19:42;;;;;;;5.70;4.03;;;13.30;99.90;;;;;;5011567;28;20626;-75
2022/11/16 03:22:16;;;;;;;5.57;4.13;;;13.30;99.90;;;;;;4993518;28;20580;-75
2022/11/16 03:24:43;;;;;;;4.03;2.87;;;13.40;99.90;;;;;;5002622;28;20628;-75
2022/11/16 03:27:33;;;;;;;3.70;3.30;;;13.30;99.90;;;;;;5005871;28;20587;-75
2022/11/16 03:30:09;;;;;;;3.60;3.27;;;13.30;99.90;;;;;;4989814;28;20182;-75
2022/11/16 03:32:50;;;;;;;4.77;3.93;;;13.30;99.90;;;;;;5019867;28;20617;-75
2022/11/16 03:35:21;;;;;;;4.53;4.13;;;13.30;99.90;;;;;;5010824;28;20603;-75
2022/11/16 03:37:50;;;;;;;4.77;3.03;;;13.40;99.90;;;;;;5009180;28;20190;-75
2022/11/16 03:40:18;;;;;;;3.80;3.15;;;13.30;99.90;;;;;;5001253;28;20629;-75
2022/11/16 03:42:45;;;;;;;4.23;3.50;;;13.40;99.90;;;;;;5001613;28;20214;-75
2022/11/16 03:45:12;;;;;;;3.90;2.50;;;13.40;99.90;;;;;;5018609;28;20640;-75
2022/11/16 03:47:40;;;;;;;3.40;2.57;;;13.40;99.90;;;;;;5024763;28;20212;-75
2022/11/16 03:50:06;;;;;;;2.78;2.00;;;13.30;99.90;;;;;;4989497;28;20611;-75
2022/11/16 03:52:33;;;;;;;3.30;2.20;;;13.40;99.90;;;;;;5031987;28;20197;-75
2022/11/16 03:54:59;;;;;;;2.90;2.22;;;13.40;99.90;;;;;;5017973;28;20587;-75
2022/11/16 03:57:26;;;;;;;3.03;1.95;;;13.30;99.90;;;;;;5015484;28;20176;-74
2022/11/16 03:59:55;;;;;;;2.75;1.80;;;13.30;99.90;;;;;;4991035;28;20167;-74
2022/11/16 04:02:21;;;;;;;3.60;2.10;;;13.40;99.90;;;;;;4991497;28;20190;-75
2022/11/16 04:24:20;;;;;;;3.13;1.67;;;13.50;99.90;;;;;;4999388;28;20618;-74
2022/11/16 04:29:37;;;;;;;6.90;1.30;;;13.60;99.90;;;;;;4993793;28;20581;-75
2022/11/16 04:37:48;;;;;;;2.10;0.80;;;13.60;99.90;;;;;;4993774;28;20574;-74
2022/11/16 04:40:22;;;;;;;1.70;0.70;;;13.40;99.90;;;;;;4993455;28;20178;-74
2022/11/16 04:42:53;;;;;;;1.87;0.70;;;13.40;99.90;;;;;;4976638;28;21016;-74
2022/11/16 04:48:04;;;;;;;1.35;0.57;;;13.40;99.90;;;;;;4993086;28;20957;-74
2022/11/16 04:50:33;;;;;;;1.30;0.60;;;13.40;99.90;;;;;;4993259;28;20577;-75
2022/11/16 04:53:00;;;;;;;1.10;0.50;;;13.30;99.90;;;;;;4992665;28;20617;-74
2022/11/16 04:55:28;;;;;;;1.63;0.70;;;13.30;99.90;;;;;;4993361;28;20601;-75
2022/11/16 04:57:53;;;;;;;2.47;0.90;;;13.30;99.90;;;;;;4992900;28;20562;-75
2022/11/16 05:00:20;;;;;;;1.37;0.60;;;13.30;99.90;;;;;;4993449;28;20579;-74
2022/11/16 05:02:47;;;;;;;1.45;0.63;;;13.30;99.90;;;;;;4992464;28;20675;-75
2022/11/16 05:05:13;;;;;;;1.77;0.60;;;13.30;99.90;;;;;;4976506;28;20210;-74
2022/11/16 05:07:42;;;;;;;3.05;0.75;;;13.30;99.90;;;;;;4992980;28;20170;-74
2022/11/16 05:10:17;;;;;;;2.05;0.80;;;13.30;99.90;;;;;;4992321;28;20171;-75
2022/11/16 05:12:44;;;;;;;1.55;0.60;;;13.30;99.90;;;;;;5009335;28;20182;-76
2022/11/16 05:15:10;;;;;;;1.40;0.70;;;13.30;99.90;;;;;;5006489;28;20167;-77
2022/11/16 05:17:36;;;;;;;1.30;0.70;;;13.30;99.90;;;;;;5008491;28;20190;-76
2022/11/16 05:22:56;;;;;;;1.50;0.85;;;13.40;99.90;;;;;;5025761;28;20611;-77
2022/11/16 05:25:25;;;;;;;3.53;0.77;;;13.40;99.90;;;;;;5009673;28;20209;-76
2022/11/16 05:27:52;;;;;;;2.00;0.90;;;13.30;99.90;;;;;;5010851;28;20577;-76
2022/11/16 05:30:18;;;;;;;1.98;1.02;;;13.30;99.90;;;;;;5025600;28;20580;-76
2022/11/16 05:32:43;;;;;;;1.40;0.80;;;13.30;99.90;;;;;;5026692;28;20205;-76
2022/11/16 05:35:11;;;;;;;2.13;0.90;;;13.30;99.90;;;;;;5025998;28;20233;-75
2022/11/16 05:37:37;;;;;;;1.40;0.80;;;13.30;99.90;;;;;;5014717;28;20607;-75
2022/11/16 05:40:04;;;;;;;2.23;0.80;;;13.20;99.90;;;;;;5014549;28;20597;-75
2022/11/16 05:42:39;;;;;;;1.50;1.00;;;13.20;99.90;;;;;;5013103;28;20208;-75
2022/11/16 05:45:06;;;;;;;3.10;1.00;;;13.20;99.90;;;;;;4997842;28;20627;-75
2022/11/16 05:47:32;;;;;;;2.20;0.77;;;13.10;99.90;;;;;;4979797;23;20212;-74
2022/11/16 05:49:59;;;;;;;2.30;0.90;;;13.10;99.90;;;;;;4964592;28;20179;-74
2022/11/16 05:52:28;;;;;;;2.17;0.80;;;13.10;99.90;;;;;;4982096;28;20757;-76
2022/11/16 05:54:59;;;;;;;1.30;0.70;;;13.10;99.90;;;;;;4962475;28;20176;-76
2022/11/16 05:57:26;;;;;;;1.73;0.90;;;13.00;99.90;;;;;;4987731;28;20195;-76
2022/11/16 05:59:53;;;;;;;2.00;0.90;;;13.00;99.90;;;;;;4975357;28;20635;-76
2022/11/16 06:02:19;;;;;;;1.40;0.73;;;12.90;99.90;;;;;;4975093;28;20233;-76
2022/11/16 06:04:47;;;;;;;2.85;0.80;;;12.90;99.90;;;;;;4975361;28;20225;-76
2022/11/16 06:07:12;;;;;;;1.40;0.70;;;12.80;99.90;;;;;;4975350;28;20199;-75
2022/11/16 06:09:39;;;;;;;2.05;0.80;;;12.80;99.90;;;;;;4975176;28;20169;-75
2022/11/16 06:12:13;;;;;;;1.95;1.00;;;12.70;99.90;;;;;;4975183;28;20178;-75
2022/11/16 06:14:38;;;;;;;2.80;1.00;;;12.60;99.90;;;;;;4954566;28;20645;-75
2022/11/16 06:17:04;;;;;;;1.45;1.00;;;12.60;99.90;;;;;;4955211;28;20195;-75
2022/11/16 06:19:31;;;;;;;4.87;1.27;;;12.60;99.90;;;;;;4938768;28;20678;-76
2022/11/16 06:21:57;;;;;;;1.90;1.10;;;12.50;99.90;;;;;;4929673;28;20598;-75
2022/11/16 06:24:25;;;;;;;1.60;1.00;;;12.50;99.90;;;;;;4947068;28;20466;-76
2022/11/16 06:26:51;;;;;;;3.88;1.00;;;12.40;99.90;;;;;;4950560;28;20195;-75
2022/11/16 06:29:41;;;;;;;3.63;1.40;;;12.40;99.90;;;;;;4959608;28;20187;-76
2022/11/16 06:36:16;;;;;;;2.75;1.00;;;12.30;99.90;;;;;;4924967;28;20222;-75
2022/11/16 06:38:43;;;;;;;1.80;0.90;;;12.20;99.90;;;;;;4968653;28;20640;-75
2022/11/16 06:41:10;;;;;;;1.95;0.90;;;12.20;99.90;;;;;;4977596;28;20172;-75
2022/11/16 06:43:41;;;;;;;3.08;1.00;;;12.20;99.90;;;;;;4975326;28;20662;-75
2022/11/16 06:46:07;;;;;;;2.73;1.00;;;12.10;99.90;;;;;;4979208;28;20203;-75
2022/11/16 06:48:33;;;;;;;1.90;1.00;;;12.10;99.90;;;;;;4993102;28;20171;-75
2022/11/16 06:51:00;;;;;;;2.58;1.23;;;12.10;99.90;;;;;;4975725;28;20182;-76
2022/11/16 06:53:28;;;;;;;2.10;1.00;;;12.10;99.90;;;;;;4974976;28;20543;-76
2022/11/16 06:55:54;;;;;;;2.17;1.00;;;12.00;99.90;;;;;;4991258;28;20190;-76
2022/11/16 06:58:20;;;;;;;3.60;1.00;;;12.00;99.90;;;;;;4991168;28;20186;-76
2022/11/16 07:00:45;;;;;;;3.27;1.07;;;12.00;99.90;;;;;;4991231;28;21204;-76
2022/11/16 07:03:15;;;;;;;1.80;1.23;;;11.90;99.90;;;;;;4990689;28;20175;-76
2022/11/16 07:05:42;;;;;;;3.60;1.60;;;11.90;99.90;;;;;;4992096;28;20206;-75
2022/11/16 07:08:12;;;;;;;3.17;1.50;;;11.90;99.90;;;;;;4990702;28;20592;-76
2022/11/16 07:10:39;;;;;;;4.00;1.30;;;11.90;99.90;;;;;;4992125;28;20163;-75
2022/11/16 07:13:06;;;;;;;3.92;1.17;;;11.90;99.90;;;;;;4990376;28;20784;-75
2022/11/16 07:15:34;;;;;;;2.28;0.90;;;11.80;99.90;;;;;;4990688;28;20524;-75
2022/11/16 07:18:05;;;;;;;2.80;1.00;;;11.80;99.90;;;;;;4990585;28;20233;-75
2022/11/16 07:20:32;;;;;;;2.70;1.00;;;11.80;99.90;;;;;;4974542;28;20174;-76
2022/11/16 07:23:03;;;;;;;2.28;0.95;;;11.80;99.90;;;;;;4973891;28;20265;-75
2022/11/16 07:25:30;;;;;;;1.98;1.00;;;11.80;99.90;;;;;;4990671;28;20249;-75
2022/11/16 07:27:57;;;;;;;5.22;1.20;;;11.70;99.90;;;;;;4993533;28;20238;-76
2022/11/16 07:30:23;;;;;;;2.80;0.95;;;11.70;99.90;;;;;;4974298;28;20242;-75
2022/11/16 07:33:05;;;;;;;2.85;0.85;;;11.70;99.90;;;;;;4990330;28;20175;-75
2022/11/16 07:35:49;;;;;;;2.95;0.90;;;11.60;99.90;;;;;;4991607;28;20190;-75
2022/11/16 07:38:15;;;;;;;2.42;1.05;;;11.60;99.90;;;;;;4990412;28;20171;-75
2022/11/16 07:40:44;;;;;;;5.43;1.15;;;11.60;99.90;;;;;;4974103;28;20182;-75
2022/11/16 07:43:12;;;;;;;5.32;1.38;;;11.60;99.90;;;;;;4976309;28;20171;-75
2022/11/16 07:46:11;;;;;;;2.05;1.13;;;11.60;99.90;;;;;;4990122;28;20230;-75
2022/11/16 07:48:37;;;;;;;6.57;1.10;;;11.60;99.90;;;;;;4942756;28;20180;-75
2022/11/16 07:51:16;;;;;;;4.60;1.40;;;11.50;99.90;;;;;;4976070;28;20187;-75
2022/11/16 07:53:52;;;;;;;3.97;1.98;;;11.50;99.90;;;;;;4974398;28;20536;-74
2022/11/16 07:56:38;;;;;;;10.00;1.52;;;11.50;99.90;;;;;;4974785;28;20199;-75
2022/11/16 07:59:04;;;;;;;4.40;1.88;;;11.50;99.90;;;;;;4958158;28;20270;-74
2022/11/16 08:01:34;;;;;;;6.75;1.65;;;11.60;99.90;;;;;;4974735;28;20667;-74
2022/11/16 08:04:02;;;;;;;2.90;1.40;;;11.60;99.90;;;;;;4975034;28;20206;-74
2022/11/16 08:06:30;;;;;;;4.88;1.67;;;11.60;99.90;;;;;;4974166;28;20603;-74
2022/11/16 08:08:56;;;;;;;4.00;1.70;;;11.60;99.90;;;;;;4974335;28;20168;-75
2022/11/16 08:11:22;;;;;;;6.83;1.63;;;11.60;99.90;;;;;;4975276;28;20221;-75
2022/11/16 08:13:49;;;;;;;6.82;2.40;;;11.60;99.90;;;;;;4973941;28;20178;-75
2022/11/16 08:16:18;;;;;;;4.38;1.50;;;11.60;99.90;;;;;;4957896;28;20188;-75
2022/11/16 08:19:14;;;;;;;5.38;1.52;;;11.60;99.90;;;;;;4974356;28;20508;-75
2022/11/16 08:21:40;;;;;;;8.40;1.95;;;11.70;99.90;;;;;;4979791;28;20635;-75
2022/11/16 08:24:07;;;;;;;3.97;1.40;;;11.70;99.90;;;;;;4975044;28;20199;-75
2022/11/16 08:26:36;;;;;;;4.82;1.50;;;11.80;99.90;;;;;;4973828;28;20753;-75
2022/11/16 08:29:07;;;;;;;3.55;1.00;;;11.80;99.90;;;;;;4957914;28;20211;-75
2022/11/16 08:31:35;;;;;;;4.78;1.77;;;11.90;99.90;;;;;;4957532;28;20534;-75
2022/11/16 08:34:09;;;;;;;4.70;1.55;;;11.90;99.90;;;;;;4973812;28;20318;-75
2022/11/16 08:36:38;;;;;;;4.93;1.75;;;11.90;99.90;;;;;;4948746;28;20204;-75
2022/11/16 08:39:05;;;;;;;4.40;1.70;;;12.00;99.90;;;;;;4935643;28;20176;-75
2022/11/16 08:41:34;;;;;;;4.95;1.10;;;12.00;99.90;;;;;;4937209;29;20310;-75
2022/11/16 08:44:01;;;;;;;2.70;1.00;;;12.00;99.90;;;;;;4942707;28;20647;-74
2022/11/16 08:46:27;;;;;;;6.63;1.23;;;12.10;99.90;;;;;;4946247;28;20612;-75
2022/11/16 08:49:01;;;;;;;4.55;1.38;;;12.10;99.90;;;;;;4957782;28;20175;-75
2022/11/16 08:51:27;;;;;;;3.73;1.13;;;12.20;99.90;;;;;;4981196;28;20163;-75
2022/11/16 08:54:00;;;;;;;4.38;1.40;;;12.30;99.90;;;;;;4973824;28;20179;-74
2022/11/16 08:56:28;;;;;;;4.72;1.60;;;12.40;99.90;;;;;;4976399;28;20234;-74
2022/11/16 08:58:55;;;;;;;6.27;1.63;;;12.50;99.90;;;;;;4977723;28;20171;-75
2022/11/16 09:01:24;;;;;;;5.43;1.37;;;12.60;99.90;;;;;;4978666;28;20571;-75
2022/11/16 09:03:52;;;;;;;5.63;1.30;;;12.70;99.90;;;;;;4995554;28;20562;-74
2022/11/16 09:06:17;;;;;;;6.88;1.45;;;12.70;99.90;;;;;;4995743;28;20278;-75
2022/11/16 09:08:45;;;;;;;7.77;1.77;;;12.80;99.90;;;;;;4994597;28;20260;-75
2022/11/16 09:11:14;;;;;;;2.90;1.55;;;12.90;99.90;;;;;;4994402;28;20558;-75
2022/11/16 09:13:41;;;;;;;2.57;1.23;;;13.00;99.90;;;;;;4976428;28;20202;-75
2022/11/16 09:16:07;;;;;;;3.20;1.10;;;13.00;99.90;;;;;;4993970;28;20598;-75
2022/11/16 09:18:34;;;;;;;4.10;1.27;;;13.10;99.90;;;;;;4993934;28;20561;-74
2022/11/16 09:20:59;;;;;;;5.33;1.70;;;13.20;99.90;;;;;;4993695;28;20563;-74
2022/11/16 09:23:25;;;;;;;3.90;0.90;;;13.30;99.90;;;;;;4993597;28;20570;-75
2022/11/16 09:25:52;;;;;;;4.47;1.40;;;13.40;99.90;;;;;;4993664;28;20199;-75
2022/11/16 09:28:18;;;;;;;4.13;1.10;;;13.50;99.90;;;;;;4998371;28;20618;-75
2022/11/16 09:30:46;;;;;;;4.23;1.13;;;13.70;99.90;;;;;;4976422;28;20598;-74
2022/11/16 09:33:12;;;;;;;3.80;1.40;;;13.80;99.90;;;;;;4993325;28;20567;-75
2022/11/16 09:35:38;;;;;;;5.53;1.10;;;14.00;99.90;;;;;;4993567;28;20574;-75
2022/11/16 09:38:05;;;;;;;5.60;1.27;;;14.10;99.90;;;;;;4993519;28;20175;-75
2022/11/16 09:40:36;;;;;;;7.50;1.70;;;14.30;99.90;;;;;;4993521;28;20581;-75
2022/11/16 09:43:27;;;;;;;4.47;1.07;;;14.30;99.90;;;;;;4993150;28;20677;-75
2022/11/16 09:46:21;;;;;;;4.60;0.97;;;14.40;99.90;;;;;;4973156;28;20676;-75
2022/11/16 09:48:49;;;;;;;3.63;1.20;;;14.40;99.90;;;;;;4973895;28;20636;-75
2022/11/16 09:51:17;;;;;;;3.77;0.80;;;14.30;99.90;;;;;;4973914;28;21129;-75
2022/11/16 09:54:04;;;;;;;5.37;1.50;;;14.40;99.90;;;;;;4956237;28;20595;-75
2022/11/16 09:56:34;;;;;;;6.50;0.90;;;14.40;99.90;;;;;;4973734;28;20603;-75
2022/11/16 09:59:16;;;;;;;3.53;1.13;;;14.40;99.90;;;;;;4973574;28;20720;-75
2022/11/16 10:01:56;;;;;;;4.57;1.00;;;14.40;99.90;;;;;;4973801;28;20575;-74
2022/11/16 10:04:45;;;;;;;3.90;1.00;;;14.40;99.90;;;;;;4978386;28;20602;-75
2022/11/16 10:07:16;;;;;;;7.50;0.90;;;14.40;99.90;;;;;;4957563;28;21209;-75
2022/11/16 10:09:43;;;;;;;8.90;1.43;;;14.40;99.90;;;;;;4973506;28;20618;-75
2022/11/16 10:12:22;;;;;;;5.23;1.20;;;14.40;99.90;;;;;;4973222;28;20594;-75
2022/11/16 10:15:11;;;;;;;3.37;1.00;;;14.40;99.90;;;;;;4973407;28;20622;-75
2022/11/16 10:17:58;;;;;;;4.80;0.90;;;14.50;99.90;;;;;;4973625;28;20614;-75
2022/11/16 10:20:24;;;;;;;5.20;1.20;;;14.50;99.90;;;;;;4973272;28;20581;-73
2022/11/16 10:23:16;;;;;;;3.80;1.20;;;14.50;99.90;;;;;;4972990;28;20669;-74
2022/11/16 10:25:50;;;;;;;3.70;1.40;;;14.50;99.90;;;;;;4973038;28;20283;-75
2022/11/16 10:28:22;;;;;;;3.50;1.53;;;14.60;99.90;;;;;;4973352;28;21007;-75
2022/11/16 10:31:19;;;;;;;4.47;0.90;;;14.60;99.90;;;;;;4971815;28;20585;-74
2022/11/16 10:33:49;;;;;;;4.70;0.90;;;14.60;99.90;;;;;;4973098;28;20572;-74
2022/11/16 10:36:16;;;;;;;6.23;1.60;;;14.70;99.90;;;;;;4973003;28;20952;-74
2022/11/16 10:38:43;;;;;;;5.93;0.90;;;14.80;99.90;;;;;;4955948;28;20610;-75
2022/11/16 10:41:20;;;;;;;5.53;1.10;;;14.80;99.90;;;;;;4972844;28;20575;-74
2022/11/16 10:43:47;;;;;;;3.63;1.00;;;14.80;99.90;;;;;;4977229;28;20559;-74
2022/11/16 10:46:39;;;;;;;4.67;0.90;;;14.90;99.90;;;;;;4960467;28;21027;-75
2022/11/16 10:49:20;;;;;;;3.57;0.83;;;14.90;99.90;;;;;;4988516;28;20797;-75
2022/11/16 10:51:46;;;;;;;4.30;1.10;;;14.80;99.90;;;;;;4991930;28;20611;-74
2022/11/16 10:54:14;;;;;;;4.70;1.83;;;14.90;99.90;;;;;;4992188;28;21015;-75
2022/11/16 10:56:44;;;;;;;3.20;1.10;;;14.90;99.90;;;;;;4992073;28;20190;-75
2022/11/16 10:59:12;;;;;;;5.57;1.70;;;14.80;99.90;;;;;;4992250;28;20578;-74
2022/11/16 11:01:49;;;;;;;7.07;2.60;;;14.80;99.90;;;;;;4992068;28;21122;-75
2022/11/16 11:04:30;;;;;;;7.07;2.97;;;14.80;99.90;;;;;;4992005;28;20657;-74
2022/11/16 11:07:00;;;;;;;5.57;1.20;;;14.90;99.90;;;;;;4974581;28;20641;-75
2022/11/16 11:09:29;;;;;;;6.03;2.53;;;15.00;99.90;;;;;;4990887;28;20915;-75
2022/11/16 11:12:36;;;;;;;7.20;2.37;;;15.00;99.90;;;;;;4974543;28;20624;-75
2022/11/16 11:15:11;;;;;;;3.80;1.30;;;15.10;99.90;;;;;;4913199;29;20645;-75
2022/11/16 11:17:38;;;;;;;4.50;1.30;;;15.20;99.90;;;;;;4899965;29;21069;-75
2022/11/16 11:20:16;;;;;;;8.37;1.80;;;15.20;99.90;;;;;;4939665;29;20607;-74
2022/11/16 11:22:52;;;;;;;4.97;1.13;;;15.30;99.90;;;;;;4960676;28;20605;-75
2022/11/16 11:25:31;;;;;;;4.43;1.17;;;15.30;99.90;;;;;;4957718;28;20625;-75
2022/11/16 11:28:45;;;;;;;7.90;1.10;;;15.30;99.90;;;;;;4959523;28;21179;-75
2022/11/16 11:31:24;;;;;;;4.70;1.10;;;15.30;99.90;;;;;;4950674;28;21410;-75
2022/11/16 11:34:08;;;;;;;2.77;0.90;;;15.30;99.90;;;;;;4994703;28;20944;-74
2022/11/16 11:36:44;;;;;;;3.03;0.87;;;15.40;99.90;;;;;;4978258;28;20605;-74
2022/11/16 11:39:10;;;;;;;4.23;1.13;;;15.40;99.90;;;;;;4978216;28;20879;-75
2022/11/16 11:41:42;;;;;;;5.60;0.80;;;15.40;99.90;;;;;;4978120;28;20670;-74
2022/11/16 11:44:19;;;;;;;4.60;0.90;;;15.50;99.90;;;;;;4978007;28;20211;-75
2022/11/16 11:46:53;;;;;;;3.37;0.70;;;15.50;99.90;;;;;;4995137;28;20636;-75
2022/11/16 11:49:24;;;;;;;2.93;0.90;;;15.60;99.90;;;;;;5007561;23;20687;-75
2022/11/16 11:51:53;;;;;;;4.60;0.70;;;15.60;99.90;;;;;;4997718;28;20639;-75
2022/11/16 11:54:23;;;;;;;3.50;0.80;;;15.70;99.90;;;;;;5003067;28;20578;-75
2022/11/16 11:56:49;;;;;;;3.77;0.70;;;15.70;99.90;;;;;;5014148;28;20585;-75
2022/11/16 11:59:20;;;;;;;2.63;0.80;;;15.80;99.90;;;;;;4978246;28;20637;-75
2022/11/16 12:02:01;;;;;;;2.17;0.70;;;15.80;99.90;;;;;;5013496;28;20605;-75
2022/11/16 12:04:42;;;;;;;3.20;0.70;;;15.80;99.90;;;;;;5013651;28;21018;-75
2022/11/16 12:07:19;;;;;;;4.80;0.97;;;15.90;99.90;;;;;;5013556;28;20579;-75
2022/11/16 12:10:16;;;;;;;5.20;0.80;;;15.90;99.90;;;;;;5014712;28;20696;-74
2022/11/16 12:12:47;;;;;;;4.00;0.83;;;15.90;99.90;;;;;;5014156;28;20557;-74
2022/11/16 12:15:44;;;;;;;2.50;0.60;;;15.90;99.90;;;;;;5014580;28;20580;-74
2022/11/16 12:18:37;;;;;;;2.03;0.70;;;15.90;99.90;;;;;;5014419;28;20636;-74
2022/11/16 12:21:12;;;;;;;3.57;1.73;;;15.80;99.90;;;;;;5014639;28;20977;-74
2022/11/16 12:24:06;;;;;;;3.30;0.90;;;15.80;99.90;;;;;;5013955;28;20651;-74
2022/11/16 12:26:46;;;;;;;3.60;0.67;;;15.80;99.90;;;;;;5014519;28;20631;-74
2022/11/16 12:29:44;;;;;;;2.50;0.60;;;15.90;99.90;;;;;;5012976;28;20596;-74
2022/11/16 12:32:35;;;;;;;2.70;0.87;;;15.90;99.90;;;;;;4983389;28;20584;-73
2022/11/16 12:35:29;;;;;;;2.90;0.73;;;15.90;99.90;;;;;;5014241;28;20565;-73
2022/11/16 12:38:08;;;;;;;3.93;0.70;;;16.00;99.90;;;;;;4971730;28;20662;-74
2022/11/16 12:40:45;;;;;;;3.17;0.67;;;16.00;99.90;;;;;;5013024;28;20962;-74
2022/11/16 12:43:29;;;;;;;3.50;0.77;;;16.10;99.90;;;;;;5013705;28;20631;-74
2022/11/16 12:46:21;;;;;;;2.23;0.70;;;16.20;99.90;;;;;;5013963;28;20712;-74
2022/11/16 12:49:16;;;;;;;2.57;0.70;;;16.20;99.90;;;;;;5013558;28;21026;-74
2022/11/16 12:51:56;;;;;;;2.50;0.63;;;16.20;99.90;;;;;;5012714;28;20600;-74
2022/11/16 12:54:46;;;;;;;2.70;0.93;;;16.30;99.90;;;;;;5013607;28;20565;-74
2022/11/16 12:57:28;;;;;;;3.70;1.33;;;16.30;99.90;;;;;;5013929;28;20600;-74
2022/11/16 13:00:09;;;;;;;2.37;0.80;;;16.40;99.90;;;;;;5013680;28;20937;-74
2022/11/16 13:02:45;;;;;;;3.97;0.80;;;16.40;99.90;;;;;;4995977;28;20569;-73
2022/11/16 13:05:49;;;;;;;3.10;0.90;;;16.40;99.90;;;;;;5013526;28;20624;-74
2022/11/16 13:08:23;;;;;;;2.43;0.70;;;16.50;99.90;;;;;;4956379;28;21139;-74
2022/11/16 13:11:00;;;;;;;6.50;1.00;;;16.50;99.90;;;;;;5013448;28;20557;-74
2022/11/16 13:13:28;;;;;;;4.30;1.17;;;16.50;99.90;;;;;;5012252;28;20573;-74
2022/11/16 13:15:59;;;;;;;4.50;1.43;;;16.40;99.90;;;;;;5012324;28;20605;-74
2022/11/16 13:18:26;;;;;;;3.27;0.90;;;16.40;99.90;;;;;;4996038;28;20615;-74
2022/11/16 13:21:24;;;;;;;4.03;0.70;;;16.30;99.90;;;;;;5012269;28;20573;-74
2022/11/16 13:24:25;;;;;;;4.57;0.80;;;16.30;99.90;;;;;;5013157;28;21135;-74
2022/11/16 13:26:54;;;;;;;1.80;0.70;;;16.30;99.90;;;;;;5013962;28;20569;-74
2022/11/16 13:29:49;;;;;;;1.83;0.60;;;16.30;99.90;;;;;;5013305;28;20711;-74
2022/11/16 13:32:41;;;;;;;2.93;0.80;;;16.40;99.90;;;;;;4980380;28;20573;-74
2022/11/16 13:35:14;;;;;;;2.07;1.10;;;16.30;99.90;;;;;;4979212;28;20569;-74
2022/11/16 13:37:44;;;;;;;5.50;1.10;;;16.40;99.90;;;;;;5013062;28;20585;-74
2022/11/16 13:40:26;;;;;;;3.00;0.70;;;16.30;99.90;;;;;;4994970;28;20632;-74
2022/11/16 13:43:10;;;;;;;2.33;0.60;;;16.30;99.90;;;;;;5012748;28;20849;-74
2022/11/16 13:45:44;;;;;;;2.50;1.00;;;16.30;99.90;;;;;;5012825;28;20715;-73
2022/11/16 13:48:18;;;;;;;3.53;0.70;;;16.30;99.90;;;;;;5012980;28;21239;-75
2022/11/16 13:50:55;;;;;;;2.30;0.80;;;16.20;99.90;;;;;;5013125;28;20599;-75
2022/11/16 13:53:28;;;;;;;2.23;0.67;;;16.10;99.90;;;;;;5013301;28;20581;-75
2022/11/16 13:56:06;;;;;;;1.80;0.70;;;16.10;99.90;;;;;;5013808;28;20573;-75
2022/11/16 13:58:34;;;;;;;2.10;1.00;;;16.00;99.90;;;;;;4995546;28;21187;-75